Time;durP1;ratioP1;P1;durP2;ratioP2;P2;SDS_P1;SDS_P2;PMS_P1;PMS_P2;Temp;Humidity;BMP_temperature;BMP_pressure;BME280_temperature;BME280_humidity;BME280_pressure;Samples;Min_cycle;Max_cycle;Signal;HPM_P1;HPM_P2
2021/05/02 00:00:23;;;;;;;0.10;0.10;;;;;;;;;;5031739;28;20474;-69
2021/05/02 00:02:48;;;;;;;0.10;0.10;;;;;;;;;;5025821;28;20112;-69
2021/05/02 00:05:14;;;;;;;0.10;0.10;;;;;;;;;;5027743;28;20112;-69
2021/05/02 00:07:39;;;;;;;0.10;0.10;;;;;;;;;;5030645;28;20098;-68
2021/05/02 00:10:04;;;;;;;0.10;0.10;;;;;;;;;;5024403;28;20018;-69
2021/05/02 00:12:30;;;;;;;0.10;0.10;;;;;;;;;;5025821;28;20021;-68
2021/05/02 00:14:55;;;;;;;0.10;0.10;;;;;;;;;;5025578;28;20519;-69
2021/05/02 00:17:20;;;;;;;0.10;0.10;;;;;;;;;;5044521;28;20413;-69
2021/05/02 00:19:45;;;;;;;0.10;0.10;;;;;;;;;;5041154;28;20333;-69
2021/05/02 00:22:11;;;;;;;0.10;0.10;;;;;;;;;;5042868;28;20021;-69
2021/05/02 00:24:36;;;;;;;0.10;0.10;;;;;;;;;;5025807;28;21185;-69
2021/05/02 00:27:01;;;;;;;0.10;0.10;;;;;;;;;;5024552;28;20052;-69
2021/05/02 00:29:26;;;;;;;0.10;0.10;;;;;;;;;;5027224;28;20283;-69
2021/05/02 00:31:52;;;;;;;0.10;0.10;;;;;;;;;;5043173;28;20112;-69
2021/05/02 00:34:17;;;;;;;0.10;0.10;;;;;;;;;;5041733;28;20147;-69
2021/05/02 00:36:42;;;;;;;0.10;0.10;;;;;;;;;;5044148;28;20356;-69
2021/05/02 00:39:07;;;;;;;0.10;0.10;;;;;;;;;;5041604;28;20049;-69
2021/05/02 00:41:33;;;;;;;0.10;0.10;;;;;;;;;;5048098;28;20024;-69
2021/05/02 00:44:02;;;;;;;0.10;0.10;;;;;;;;;;5040201;28;20613;-68
2021/05/02 00:46:34;;;;;;;0.10;0.10;;;;;;;;;;5045207;28;20112;-68
2021/05/02 00:49:18;;;;;;;0.10;0.10;;;;;;;;;;5044406;28;20794;-68
2021/05/02 00:51:47;;;;;;;0.10;0.10;;;;;;;;;;5043090;28;20044;-68
2021/05/02 00:54:17;;;;;;;0.10;0.10;;;;;;;;;;5041640;28;20382;-68
2021/05/02 00:57:01;;;;;;;0.10;0.10;;;;;;;;;;5027403;28;20025;-69
2021/05/02 00:59:38;;;;;;;0.10;0.10;;;;;;;;;;5043217;28;20857;-69
2021/05/02 01:02:03;;;;;;;0.10;0.10;;;;;;;;;;5048402;28;20436;-68
2021/05/02 01:04:29;;;;;;;0.10;0.10;;;;;;;;;;5043060;28;20017;-68
2021/05/02 01:06:55;;;;;;;0.10;0.10;;;;;;;;;;5024317;28;20347;-69
2021/05/02 01:09:20;;;;;;;0.10;0.10;;;;;;;;;;5023906;28;20026;-68
2021/05/02 01:11:46;;;;;;;0.10;0.10;;;;;;;;;;5042625;28;20182;-69
2021/05/02 01:14:11;;;;;;;0.10;0.10;;;;;;;;;;5040687;28;20513;-69
2021/05/02 01:16:36;;;;;;;0.10;0.10;;;;;;;;;;5027426;28;20052;-68
2021/05/02 01:19:07;;;;;;;0.10;0.10;;;;;;;;;;5040904;28;20103;-69
2021/05/02 01:21:36;;;;;;;0.10;0.10;;;;;;;;;;5026924;28;20283;-69
2021/05/02 01:24:01;;;;;;;0.10;0.10;;;;;;;;;;5042470;28;20017;-69
2021/05/02 01:26:26;;;;;;;0.10;0.10;;;;;;;;;;5042007;28;20492;-69
2021/05/02 01:28:52;;;;;;;0.10;0.10;;;;;;;;;;5040629;28;20029;-69
2021/05/02 01:31:17;;;;;;;0.10;0.10;;;;;;;;;;5025591;28;20147;-69
2021/05/02 01:33:43;;;;;;;0.10;0.10;;;;;;;;;;5024157;28;20017;-69
2021/05/02 01:36:08;;;;;;;0.10;0.10;;;;;;;;;;5025410;28;20624;-69
2021/05/02 01:38:33;;;;;;;0.10;0.10;;;;;;;;;;5026389;28;20295;-69
2021/05/02 01:40:59;;;;;;;0.00;0.00;;;;;;;;;;5028682;28;20025;-69
2021/05/02 01:43:24;;;;;;;0.10;0.10;;;;;;;;;;5030296;28;21231;-69
2021/05/02 01:45:50;;;;;;;0.10;0.10;;;;;;;;;;5049415;28;20028;-69
2021/05/02 01:48:16;;;;;;;0.10;0.10;;;;;;;;;;5047731;28;20138;-69
2021/05/02 01:50:44;;;;;;;0.10;0.10;;;;;;;;;;5047437;28;20783;-69
2021/05/02 01:53:09;;;;;;;0.10;0.10;;;;;;;;;;5047163;28;20025;-69
2021/05/02 01:55:34;;;;;;;0.07;0.07;;;;;;;;;;5045862;28;20021;-69
2021/05/02 01:57:59;;;;;;;0.10;0.10;;;;;;;;;;5028871;28;20457;-69
2021/05/02 02:00:26;;;;;;;0.10;0.10;;;;;;;;;;5043433;28;20760;-69
2021/05/02 02:02:52;;;;;;;0.10;0.10;;;;;;;;;;5041936;28;20029;-70
2021/05/02 02:05:17;;;;;;;0.10;0.10;;;;;;;;;;5028043;28;20043;-70
2021/05/02 02:07:42;;;;;;;0.10;0.10;;;;;;;;;;5043699;28;20097;-70
2021/05/02 02:10:09;;;;;;;0.10;0.10;;;;;;;;;;5042435;28;20762;-70
2021/05/02 02:12:34;;;;;;;0.10;0.10;;;;;;;;;;5026795;28;20287;-70
2021/05/02 02:14:59;;;;;;;0.10;0.10;;;;;;;;;;5042728;28;20029;-70
2021/05/02 02:17:24;;;;;;;0.10;0.10;;;;;;;;;;5025848;28;20280;-70
2021/05/02 02:19:49;;;;;;;0.00;0.00;;;;;;;;;;5043406;28;20389;-69
2021/05/02 02:22:15;;;;;;;0.10;0.10;;;;;;;;;;5051127;28;20313;-70
2021/05/02 02:24:45;;;;;;;0.10;0.10;;;;;;;;;;5036723;28;20483;-69
2021/05/02 02:27:10;;;;;;;0.10;0.10;;;;;;;;;;5054797;28;20035;-69
2021/05/02 02:29:39;;;;;;;0.10;0.10;;;;;;;;;;5036202;28;20454;-69
2021/05/02 02:32:06;;;;;;;0.10;0.10;;;;;;;;;;5053052;28;20032;-69
2021/05/02 02:34:32;;;;;;;0.10;0.10;;;;;;;;;;5051166;28;20017;-69
2021/05/02 02:36:57;;;;;;;0.10;0.10;;;;;;;;;;5050724;28;20098;-68
2021/05/02 02:39:22;;;;;;;0.10;0.10;;;;;;;;;;5040720;28;20514;-68
2021/05/02 02:41:47;;;;;;;0.10;0.10;;;;;;;;;;5045593;28;20295;-68
2021/05/02 02:44:13;;;;;;;0.10;0.10;;;;;;;;;;5031107;28;20263;-69
2021/05/02 02:46:42;;;;;;;0.10;0.10;;;;;;;;;;5044204;28;20013;-68
2021/05/02 02:49:09;;;;;;;0.10;0.10;;;;;;;;;;5027055;28;20671;-69
2021/05/02 02:51:34;;;;;;;0.10;0.10;;;;;;;;;;5043242;28;20016;-68
2021/05/02 02:53:59;;;;;;;0.10;0.10;;;;;;;;;;5027202;28;20021;-68
2021/05/02 02:56:25;;;;;;;0.10;0.10;;;;;;;;;;5042191;28;20028;-69
2021/05/02 02:59:02;;;;;;;0.10;0.10;;;;;;;;;;5028290;28;20755;-68
2021/05/02 03:01:27;;;;;;;0.10;0.10;;;;;;;;;;5042612;28;20264;-68
2021/05/02 03:03:53;;;;;;;0.10;0.10;;;;;;;;;;5043219;28;20036;-68
2021/05/02 03:06:19;;;;;;;0.10;0.10;;;;;;;;;;5045378;28;20024;-69
2021/05/02 03:08:44;;;;;;;0.10;0.10;;;;;;;;;;5026480;28;20059;-69
2021/05/02 03:11:09;;;;;;;0.10;0.10;;;;;;;;;;5028342;28;20021;-69
2021/05/02 03:13:35;;;;;;;0.10;0.10;;;;;;;;;;5044239;28;20274;-69
2021/05/02 03:16:00;;;;;;;0.10;0.10;;;;;;;;;;5044430;28;20104;-69
2021/05/02 03:18:36;;;;;;;0.10;0.10;;;;;;;;;;5046617;28;20021;-69
2021/05/02 03:21:03;;;;;;;0.10;0.10;;;;;;;;;;5046586;28;20025;-69
2021/05/02 03:23:32;;;;;;;0.10;0.10;;;;;;;;;;5042935;28;20071;-69
2021/05/02 03:25:59;;;;;;;0.10;0.10;;;;;;;;;;5042057;28;20029;-69
2021/05/02 03:28:27;;;;;;;0.10;0.10;;;;;;;;;;5027539;28;20036;-69
2021/05/02 03:30:52;;;;;;;0.10;0.10;;;;;;;;;;5025356;28;20022;-69
2021/05/02 03:33:18;;;;;;;0.10;0.10;;;;;;;;;;5044717;28;20492;-69
2021/05/02 03:35:44;;;;;;;0.10;0.10;;;;;;;;;;5040858;28;20040;-69
2021/05/02 03:38:12;;;;;;;0.10;0.10;;;;;;;;;;5027075;28;20295;-69
2021/05/02 03:40:37;;;;;;;0.10;0.10;;;;;;;;;;5040798;28;20021;-69
2021/05/02 03:43:03;;;;;;;0.10;0.10;;;;;;;;;;5040736;28;20814;-69
2021/05/02 03:45:29;;;;;;;0.10;0.10;;;;;;;;;;5026984;28;20032;-69
2021/05/02 03:47:54;;;;;;;0.10;0.10;;;;;;;;;;5028719;28;20037;-69
2021/05/02 03:50:19;;;;;;;0.10;0.10;;;;;;;;;;5027230;28;20257;-68
2021/05/02 03:52:44;;;;;;;0.10;0.10;;;;;;;;;;5032503;28;20285;-69
2021/05/02 03:55:09;;;;;;;0.10;0.10;;;;;;;;;;5030005;28;20462;-69
2021/05/02 03:57:35;;;;;;;0.10;0.10;;;;;;;;;;5025597;28;20362;-71
2021/05/02 04:00:00;;;;;;;0.10;0.10;;;;;;;;;;5041979;28;20147;-69
2021/05/02 04:02:25;;;;;;;0.10;0.10;;;;;;;;;;5040386;28;20029;-69
2021/05/02 04:04:50;;;;;;;0.10;0.10;;;;;;;;;;5027017;28;20025;-69
2021/05/02 04:07:16;;;;;;;0.10;0.10;;;;;;;;;;5043708;28;20321;-68
2021/05/02 04:09:41;;;;;;;0.10;0.10;;;;;;;;;;5043263;28;20266;-69
2021/05/02 04:12:07;;;;;;;0.10;0.10;;;;;;;;;;5042040;28;20310;-69
2021/05/02 04:14:32;;;;;;;0.10;0.10;;;;;;;;;;5026564;28;20021;-69
2021/05/02 04:16:58;;;;;;;0.10;0.10;;;;;;;;;;5044503;28;20499;-69
2021/05/02 04:19:23;;;;;;;0.10;0.10;;;;;;;;;;5026713;28;20111;-69
2021/05/02 04:21:48;;;;;;;0.10;0.10;;;;;;;;;;5027474;28;20031;-69
2021/05/02 04:24:14;;;;;;;0.10;0.10;;;;;;;;;;5024201;28;20468;-69
2021/05/02 04:26:43;;;;;;;0.10;0.10;;;;;;;;;;5041958;28;20519;-69
2021/05/02 04:29:08;;;;;;;0.10;0.10;;;;;;;;;;5024853;28;20044;-69
2021/05/02 04:31:33;;;;;;;0.10;0.10;;;;;;;;;;5028392;28;20025;-69
2021/05/02 04:33:58;;;;;;;0.10;0.10;;;;;;;;;;5041666;28;20024;-69
2021/05/02 04:36:24;;;;;;;0.10;0.10;;;;;;;;;;5043635;28;20028;-69
2021/05/02 04:38:49;;;;;;;0.10;0.10;;;;;;;;;;5041297;28;20295;-69
2021/05/02 04:41:14;;;;;;;0.10;0.10;;;;;;;;;;5026695;28;20279;-69
2021/05/02 04:43:39;;;;;;;0.10;0.10;;;;;;;;;;5026780;28;21725;-69
2021/05/02 04:46:04;;;;;;;0.10;0.10;;;;;;;;;;5042627;28;20385;-69
2021/05/02 04:48:30;;;;;;;0.10;0.10;;;;;;;;;;5024289;28;20473;-69
2021/05/02 04:50:55;;;;;;;0.13;0.13;;;;;;;;;;5043590;28;20260;-69
2021/05/02 04:53:20;;;;;;;0.10;0.10;;;;;;;;;;5025770;28;20021;-69
2021/05/02 04:55:46;;;;;;;0.10;0.10;;;;;;;;;;5039639;28;20163;-69
2021/05/02 04:58:11;;;;;;;0.10;0.10;;;;;;;;;;5025185;28;20029;-69
2021/05/02 05:00:36;;;;;;;0.10;0.10;;;;;;;;;;5043005;28;20052;-70
2021/05/02 05:03:02;;;;;;;0.10;0.10;;;;;;;;;;5024542;28;20029;-69
2021/05/02 05:05:27;;;;;;;0.10;0.10;;;;;;;;;;5025541;28;20091;-69
2021/05/02 05:07:52;;;;;;;0.10;0.10;;;;;;;;;;5045041;28;20029;-69
2021/05/02 05:10:17;;;;;;;0.10;0.10;;;;;;;;;;5026509;28;20024;-70
2021/05/02 05:12:42;;;;;;;0.10;0.10;;;;;;;;;;5044930;28;20268;-70
2021/05/02 05:15:08;;;;;;;0.10;0.10;;;;;;;;;;5031029;28;20390;-69
2021/05/02 05:17:33;;;;;;;0.10;0.10;;;;;;;;;;5045249;28;20426;-69
2021/05/02 05:19:58;;;;;;;0.10;0.10;;;;;;;;;;5047467;28;20071;-69
2021/05/02 05:22:24;;;;;;;0.10;0.10;;;;;;;;;;5028755;28;20379;-69
2021/05/02 05:24:49;;;;;;;0.10;0.10;;;;;;;;;;5030708;28;21525;-69
2021/05/02 05:27:14;;;;;;;0.20;0.20;;;;;;;;;;5031796;28;20354;-69
2021/05/02 05:29:39;;;;;;;0.10;0.10;;;;;;;;;;5046317;28;20370;-69
2021/05/02 05:32:04;;;;;;;0.10;0.10;;;;;;;;;;5046240;28;20040;-70
2021/05/02 05:34:31;;;;;;;0.20;0.20;;;;;;;;;;5042990;28;20264;-70
2021/05/02 05:36:56;;;;;;;0.20;0.20;;;;;;;;;;5050907;28;20044;-69
2021/05/02 05:39:21;;;;;;;0.10;0.10;;;;;;;;;;5033825;28;20485;-70
2021/05/02 05:41:46;;;;;;;0.10;0.10;;;;;;;;;;5031352;28;20031;-69
2021/05/02 05:44:12;;;;;;;0.10;0.10;;;;;;;;;;5029831;28;20753;-69
2021/05/02 05:46:37;;;;;;;0.10;0.10;;;;;;;;;;5045633;28;20279;-69
2021/05/02 05:49:02;;;;;;;0.10;0.10;;;;;;;;;;5048063;28;20025;-69
2021/05/02 05:51:28;;;;;;;0.10;0.10;;;;;;;;;;5043975;28;20139;-69
2021/05/02 05:53:53;;;;;;;0.10;0.10;;;;;;;;;;5046754;28;20056;-69
2021/05/02 05:56:20;;;;;;;0.20;0.20;;;;;;;;;;5046737;28;20025;-69
2021/05/02 05:58:46;;;;;;;0.10;0.10;;;;;;;;;;5027377;28;20275;-70
2021/05/02 06:01:11;;;;;;;0.10;0.10;;;;;;;;;;5044507;28;20021;-69
2021/05/02 06:03:36;;;;;;;0.10;0.10;;;;;;;;;;5041165;28;20021;-69
2021/05/02 06:06:01;;;;;;;0.10;0.10;;;;;;;;;;5044327;28;20290;-70
2021/05/02 06:08:26;;;;;;;0.10;0.10;;;;;;;;;;5044833;28;20390;-69
2021/05/02 06:10:51;;;;;;;0.10;0.10;;;;;;;;;;5025823;28;20278;-69
2021/05/02 06:13:17;;;;;;;0.10;0.10;;;;;;;;;;5046396;28;20023;-69
2021/05/02 06:15:42;;;;;;;0.10;0.10;;;;;;;;;;5041369;28;20272;-69
2021/05/02 06:18:08;;;;;;;0.10;0.10;;;;;;;;;;5045535;28;20104;-68
2021/05/02 06:20:33;;;;;;;0.10;0.10;;;;;;;;;;5046783;28;20274;-68
2021/05/02 06:22:58;;;;;;;0.10;0.10;;;;;;;;;;5044767;28;20265;-69
2021/05/02 06:25:23;;;;;;;0.10;0.10;;;;;;;;;;5043309;28;20811;-69
2021/05/02 06:27:49;;;;;;;0.10;0.10;;;;;;;;;;5027981;28;20279;-68
2021/05/02 06:30:14;;;;;;;0.10;0.10;;;;;;;;;;5028581;28;20672;-68
2021/05/02 06:32:39;;;;;;;0.10;0.10;;;;;;;;;;5026553;28;20420;-68
2021/05/02 06:35:05;;;;;;;0.10;0.10;;;;;;;;;;5047107;28;20512;-69
2021/05/02 06:37:30;;;;;;;0.10;0.10;;;;;;;;;;5046981;28;20020;-70
2021/05/02 06:39:56;;;;;;;0.10;0.10;;;;;;;;;;5042305;28;20099;-70
2021/05/02 06:42:21;;;;;;;0.10;0.10;;;;;;;;;;5045967;28;20748;-71
2021/05/02 06:44:46;;;;;;;0.10;0.10;;;;;;;;;;5025097;28;20037;-70
2021/05/02 06:47:12;;;;;;;0.10;0.10;;;;;;;;;;5030869;28;20064;-70
2021/05/02 06:49:37;;;;;;;0.10;0.10;;;;;;;;;;5031625;28;20260;-70
2021/05/02 06:52:02;;;;;;;0.10;0.10;;;;;;;;;;5029800;28;20032;-69
2021/05/02 06:54:27;;;;;;;0.10;0.10;;;;;;;;;;5046682;28;20017;-70
2021/05/02 06:56:52;;;;;;;0.10;0.10;;;;;;;;;;5046520;28;20386;-70
2021/05/02 06:59:18;;;;;;;0.10;0.10;;;;;;;;;;5044082;28;20300;-70
2021/05/02 07:01:43;;;;;;;0.10;0.10;;;;;;;;;;5028334;28;20036;-70
2021/05/02 07:04:08;;;;;;;0.10;0.10;;;;;;;;;;5044209;28;20520;-69
2021/05/02 07:06:33;;;;;;;0.10;0.10;;;;;;;;;;5047926;28;20432;-69
2021/05/02 07:08:58;;;;;;;0.10;0.10;;;;;;;;;;5041802;28;20021;-70
2021/05/02 07:11:24;;;;;;;0.10;0.10;;;;;;;;;;5028623;28;20462;-70
2021/05/02 07:13:49;;;;;;;0.10;0.10;;;;;;;;;;5024174;28;20128;-69
2021/05/02 07:16:14;;;;;;;0.10;0.10;;;;;;;;;;5026949;28;20665;-70
2021/05/02 07:18:40;;;;;;;0.10;0.10;;;;;;;;;;5042501;28;20056;-69
2021/05/02 07:21:06;;;;;;;0.10;0.10;;;;;;;;;;5044155;28;20020;-70
2021/05/02 07:23:31;;;;;;;0.10;0.10;;;;;;;;;;5040451;28;20021;-70
2021/05/02 07:25:56;;;;;;;0.10;0.10;;;;;;;;;;5045378;28;20052;-70
2021/05/02 07:28:21;;;;;;;0.10;0.10;;;;;;;;;;5045214;28;20025;-70
2021/05/02 07:30:47;;;;;;;0.10;0.10;;;;;;;;;;5025877;28;20795;-70
2021/05/02 07:33:12;;;;;;;0.10;0.10;;;;;;;;;;5025457;28;20866;-70
2021/05/02 07:35:37;;;;;;;0.10;0.10;;;;;;;;;;5042038;28;20363;-70
2021/05/02 07:38:02;;;;;;;0.10;0.10;;;;;;;;;;5043040;28;20255;-71
2021/05/02 07:40:28;;;;;;;0.10;0.10;;;;;;;;;;5041353;28;20045;-70
2021/05/02 07:42:53;;;;;;;0.10;0.10;;;;;;;;;;5043384;28;20131;-70
2021/05/02 07:45:18;;;;;;;0.10;0.10;;;;;;;;;;5024804;28;20032;-70
2021/05/02 07:47:43;;;;;;;0.10;0.10;;;;;;;;;;5026635;28;20263;-69
2021/05/02 07:50:09;;;;;;;0.10;0.10;;;;;;;;;;5042152;28;20029;-69
2021/05/02 07:52:34;;;;;;;0.10;0.10;;;;;;;;;;5022646;28;20460;-69
2021/05/02 07:55:00;;;;;;;0.10;0.10;;;;;;;;;;5025363;28;20017;-69
2021/05/02 07:57:25;;;;;;;0.10;0.10;;;;;;;;;;5043159;28;20278;-71
2021/05/02 07:59:51;;;;;;;0.10;0.10;;;;;;;;;;5025508;28;20049;-69
2021/05/02 08:02:18;;;;;;;0.10;0.10;;;;;;;;;;5042491;28;20017;-70
2021/05/02 08:04:43;;;;;;;0.10;0.10;;;;;;;;;;5028019;28;20018;-69
2021/05/02 08:07:08;;;;;;;0.10;0.10;;;;;;;;;;5042719;28;20103;-70
2021/05/02 08:09:33;;;;;;;0.00;0.00;;;;;;;;;;5042727;28;20810;-69
2021/05/02 08:11:59;;;;;;;0.10;0.10;;;;;;;;;;5026330;28;20025;-70
2021/05/02 08:14:24;;;;;;;0.10;0.10;;;;;;;;;;5045321;28;20096;-70
2021/05/02 08:16:49;;;;;;;0.10;0.10;;;;;;;;;;5045230;28;20492;-71
2021/05/02 08:19:14;;;;;;;0.10;0.10;;;;;;;;;;5055384;28;20028;-70
2021/05/02 08:21:39;;;;;;;0.10;0.10;;;;;;;;;;5061216;28;20267;-70
2021/05/02 08:24:07;;;;;;;0.10;0.10;;;;;;;;;;5058137;28;20554;-70
2021/05/02 08:26:34;;;;;;;0.10;0.10;;;;;;;;;;5028964;28;20295;-71
2021/05/02 08:29:00;;;;;;;0.10;0.10;;;;;;;;;;5043778;28;20206;-70
2021/05/02 08:31:27;;;;;;;0.10;0.10;;;;;;;;;;5025945;28;20031;-70
2021/05/02 08:33:52;;;;;;;0.10;0.10;;;;;;;;;;5043309;28;20017;-70
2021/05/02 08:36:18;;;;;;;0.10;0.10;;;;;;;;;;5065432;28;20036;-69
2021/05/02 08:38:43;;;;;;;0.10;0.10;;;;;;;;;;5040894;28;20089;-70
2021/05/02 08:41:08;;;;;;;0.10;0.10;;;;;;;;;;5026754;28;20028;-70
2021/05/02 08:43:34;;;;;;;0.10;0.10;;;;;;;;;;5038161;28;20060;-71
2021/05/02 08:46:00;;;;;;;0.10;0.10;;;;;;;;;;5043753;28;20444;-69
2021/05/02 08:48:25;;;;;;;0.00;0.00;;;;;;;;;;5048201;28;20021;-69
2021/05/02 08:50:52;;;;;;;0.10;0.10;;;;;;;;;;5044251;28;20020;-69
2021/05/02 08:53:17;;;;;;;0.10;0.10;;;;;;;;;;5043085;28;20710;-69
2021/05/02 08:55:43;;;;;;;0.10;0.10;;;;;;;;;;5030989;28;20033;-68
2021/05/02 08:58:26;;;;;;;0.10;0.10;;;;;;;;;;5047058;28;20287;-70
2021/05/02 09:00:52;;;;;;;0.10;0.10;;;;;;;;;;5048708;28;20749;-70
2021/05/02 09:03:17;;;;;;;0.10;0.10;;;;;;;;;;5047197;28;20154;-68
2021/05/02 09:05:43;;;;;;;0.10;0.10;;;;;;;;;;5046908;28;20029;-69
2021/05/02 09:08:09;;;;;;;0.10;0.10;;;;;;;;;;5028325;28;20195;-69
2021/05/02 09:10:35;;;;;;;0.10;0.10;;;;;;;;;;5048658;28;20517;-69
2021/05/02 09:13:01;;;;;;;0.10;0.10;;;;;;;;;;5029648;28;20025;-69
2021/05/02 09:15:26;;;;;;;0.00;0.00;;;;;;;;;;5034963;28;20461;-70
2021/05/02 09:17:55;;;;;;;0.00;0.00;;;;;;;;;;5050121;28;20021;-70
2021/05/02 09:20:40;;;;;;;0.00;0.00;;;;;;;;;;5051385;28;20044;-70
2021/05/02 09:23:05;;;;;;;0.10;0.10;;;;;;;;;;5053701;28;20100;-70
2021/05/02 09:25:31;;;;;;;0.10;0.10;;;;;;;;;;5029839;28;20119;-70
2021/05/02 09:27:57;;;;;;;0.10;0.10;;;;;;;;;;5047596;28;21018;-70
2021/05/02 09:30:22;;;;;;;0.10;0.10;;;;;;;;;;5028919;28;20026;-70
2021/05/02 09:32:49;;;;;;;0.00;0.00;;;;;;;;;;5046712;28;20291;-70
2021/05/02 09:35:24;;;;;;;0.10;0.10;;;;;;;;;;5046505;28;20703;-69
2021/05/02 09:37:49;;;;;;;0.00;0.00;;;;;;;;;;5043506;28;20517;-69
2021/05/02 09:40:16;;;;;;;0.10;0.10;;;;;;;;;;5044351;28;20073;-69
2021/05/02 09:42:46;;;;;;;0.10;0.10;;;;;;;;;;5044956;28;20362;-69
2021/05/02 09:45:12;;;;;;;0.10;0.10;;;;;;;;;;5045123;28;20090;-69
2021/05/02 09:47:38;;;;;;;0.10;0.10;;;;;;;;;;5026285;28;20432;-69
2021/05/02 09:50:10;;;;;;;0.10;0.10;;;;;;;;;;5052298;28;20032;-69
2021/05/02 09:52:51;;;;;;;0.00;0.00;;;;;;;;;;5044513;28;20461;-68
2021/05/02 09:55:29;;;;;;;0.10;0.10;;;;;;;;;;5047574;28;20025;-69
2021/05/02 09:57:54;;;;;;;0.10;0.10;;;;;;;;;;5046284;28;20102;-69
2021/05/02 10:00:54;;;;;;;0.00;0.00;;;;;;;;;;5040432;28;20033;-69
2021/05/02 10:03:20;;;;;;;0.10;0.10;;;;;;;;;;5010617;28;20030;-69
2021/05/02 10:05:57;;;;;;;0.10;0.10;;;;;;;;;;5020851;28;20030;-68
2021/05/02 10:08:49;;;;;;;0.10;0.10;;;;;;;;;;5028923;28;20021;-68
2021/05/02 10:11:14;;;;;;;0.10;0.10;;;;;;;;;;5043777;28;20619;-69
2021/05/02 10:13:39;;;;;;;0.00;0.00;;;;;;;;;;5029861;28;20104;-68
2021/05/02 10:16:05;;;;;;;0.00;0.00;;;;;;;;;;5028618;28;20029;-68
2021/05/02 10:18:30;;;;;;;0.05;0.05;;;;;;;;;;5044399;28;20032;-70
2021/05/02 10:20:55;;;;;;;0.00;0.00;;;;;;;;;;5045590;28;20052;-70
2021/05/02 10:23:21;;;;;;;0.10;0.10;;;;;;;;;;5028620;28;20029;-71
2021/05/02 10:25:49;;;;;;;0.00;0.00;;;;;;;;;;5043181;28;20043;-70
2021/05/02 10:28:18;;;;;;;0.10;0.10;;;;;;;;;;5028202;28;20614;-71
2021/05/02 10:30:44;;;;;;;0.10;0.10;;;;;;;;;;5029007;28;20438;-72
2021/05/02 10:33:10;;;;;;;0.10;0.10;;;;;;;;;;5030588;28;20104;-70
2021/05/02 10:35:55;;;;;;;0.10;0.10;;;;;;;;;;5032710;28;20020;-70
2021/05/02 10:38:20;;;;;;;0.10;0.10;;;;;;;;;;5027440;28;20025;-72
2021/05/02 10:40:46;;;;;;;0.00;0.00;;;;;;;;;;5025706;28;20036;-70
2021/05/02 10:43:25;;;;;;;0.00;0.00;;;;;;;;;;5047955;28;20135;-70
2021/05/02 10:45:50;;;;;;;0.10;0.10;;;;;;;;;;5046865;28;20025;-72
2021/05/02 10:48:15;;;;;;;0.00;0.00;;;;;;;;;;5043626;28;20091;-74
2021/05/02 10:50:44;;;;;;;0.00;0.00;;;;;;;;;;5047415;28;20032;-75
2021/05/02 10:53:14;;;;;;;0.00;0.00;;;;;;;;;;5049798;28;20772;-72
2021/05/02 10:56:04;;;;;;;0.00;0.00;;;;;;;;;;5045680;28;20028;-72
2021/05/02 10:58:36;;;;;;;0.00;0.00;;;;;;;;;;5044444;28;20382;-72
2021/05/02 11:01:03;;;;;;;0.00;0.00;;;;;;;;;;5040512;28;20032;-72
2021/05/02 11:03:52;;;;;;;0.00;0.00;;;;;;;;;;5026922;28;20032;-73
2021/05/02 11:06:36;;;;;;;0.00;0.00;;;;;;;;;;5037869;28;20043;-74
2021/05/02 11:09:01;;;;;;;0.00;0.00;;;;;;;;;;5047764;28;20908;-73
2021/05/02 11:11:33;;;;;;;0.00;0.00;;;;;;;;;;5044921;28;20017;-74
2021/05/02 11:16:33;;;;;;;0.00;0.00;;;;;;;;;;5047170;28;20508;-72
2021/05/02 11:18:58;;;;;;;0.00;0.00;;;;;;;;;;5045788;28;20033;-73
2021/05/02 11:21:23;;;;;;;0.00;0.00;;;;;;;;;;5030504;28;20021;-74
2021/05/02 11:23:56;;;;;;;0.00;0.00;;;;;;;;;;5045160;28;20275;-73
2021/05/02 11:26:40;;;;;;;0.00;0.00;;;;;;;;;;5044467;28;20083;-73
2021/05/02 11:29:13;;;;;;;0.00;0.00;;;;;;;;;;5040830;28;20534;-73
2021/05/02 11:31:42;;;;;;;0.00;0.00;;;;;;;;;;5042971;28;20116;-72
2021/05/02 11:34:07;;;;;;;0.10;0.10;;;;;;;;;;5045267;28;20021;-71
2021/05/02 11:36:36;;;;;;;0.03;0.03;;;;;;;;;;5045887;28;20094;-71
2021/05/02 11:39:02;;;;;;;0.00;0.00;;;;;;;;;;5044181;28;20371;-72
2021/05/02 11:41:27;;;;;;;0.00;0.00;;;;;;;;;;5043894;28;20367;-72
2021/05/02 11:43:53;;;;;;;0.00;0.00;;;;;;;;;;5025293;28;20025;-72
2021/05/02 11:46:22;;;;;;;0.00;0.00;;;;;;;;;;5029037;28;20287;-72
2021/05/02 11:48:48;;;;;;;0.00;0.00;;;;;;;;;;5043973;28;20260;-71
2021/05/02 11:51:19;;;;;;;0.00;0.00;;;;;;;;;;5041502;28;20032;-71
2021/05/02 11:54:03;;;;;;;0.00;0.00;;;;;;;;;;5044174;28;20037;-71
2021/05/02 11:56:32;;;;;;;0.10;0.10;;;;;;;;;;5044134;28;20032;-72
2021/05/02 11:59:07;;;;;;;0.00;0.00;;;;;;;;;;5026223;28;20489;-72
2021/05/02 12:01:32;;;;;;;0.00;0.00;;;;;;;;;;5024398;28;20036;-72
2021/05/02 12:04:02;;;;;;;0.00;0.00;;;;;;;;;;5025857;28;20295;-71
2021/05/02 12:06:28;;;;;;;0.05;0.05;;;;;;;;;;5027259;28;20079;-71
2021/05/02 12:08:53;;;;;;;0.00;0.00;;;;;;;;;;5027578;28;20021;-71
2021/05/02 12:11:19;;;;;;;0.00;0.00;;;;;;;;;;5041307;28;20519;-71
2021/05/02 12:13:50;;;;;;;0.00;0.00;;;;;;;;;;5025319;28;20029;-71
2021/05/02 12:16:16;;;;;;;0.00;0.00;;;;;;;;;;5042756;28;20027;-70
2021/05/02 12:18:44;;;;;;;0.00;0.00;;;;;;;;;;5028357;28;20111;-71
2021/05/02 12:21:20;;;;;;;0.00;0.00;;;;;;;;;;5044638;28;20029;-72
2021/05/02 12:23:45;;;;;;;0.00;0.00;;;;;;;;;;5040712;28;20083;-72
2021/05/02 12:26:11;;;;;;;0.00;0.00;;;;;;;;;;5032995;28;20025;-72
2021/05/02 12:28:39;;;;;;;0.00;0.00;;;;;;;;;;5028597;28;20021;-71
2021/05/02 12:31:05;;;;;;;0.00;0.00;;;;;;;;;;5041869;28;20044;-72
2021/05/02 12:33:31;;;;;;;0.00;0.00;;;;;;;;;;5024329;28;20052;-72
2021/05/02 12:35:56;;;;;;;0.00;0.00;;;;;;;;;;5029011;28;20052;-72
2021/05/02 12:38:25;;;;;;;0.00;0.00;;;;;;;;;;5040041;28;20057;-74
2021/05/02 12:40:50;;;;;;;0.00;0.00;;;;;;;;;;5040297;28;20291;-73
2021/05/02 12:43:23;;;;;;;0.00;0.00;;;;;;;;;;5041915;28;20053;-73
2021/05/02 12:45:48;;;;;;;0.00;0.00;;;;;;;;;;5041867;28;20704;-73
2021/05/02 12:48:22;;;;;;;0.00;0.00;;;;;;;;;;5040717;28;20063;-73
2021/05/02 12:50:47;;;;;;;0.00;0.00;;;;;;;;;;5041477;28;20025;-73
2021/05/02 12:53:13;;;;;;;0.00;0.00;;;;;;;;;;5043297;28;20021;-73
2021/05/02 12:55:38;;;;;;;0.00;0.00;;;;;;;;;;5026558;28;20039;-73
2021/05/02 12:58:07;;;;;;;0.00;0.00;;;;;;;;;;5041345;28;20283;-72
2021/05/02 13:00:37;;;;;;;0.00;0.00;;;;;;;;;;5045482;28;20261;-72
2021/05/02 13:03:21;;;;;;;0.00;0.00;;;;;;;;;;5027214;28;20712;-74
2021/05/02 13:06:06;;;;;;;0.00;0.00;;;;;;;;;;5046584;28;20028;-73
2021/05/02 13:08:31;;;;;;;0.00;0.00;;;;;;;;;;5025850;28;20021;-73
2021/05/02 13:10:59;;;;;;;0.00;0.00;;;;;;;;;;5051806;28;20021;-73
2021/05/02 13:13:24;;;;;;;0.00;0.00;;;;;;;;;;5021367;28;20020;-70
2021/05/02 13:15:49;;;;;;;0.00;0.00;;;;;;;;;;5047949;28;20428;-70
2021/05/02 13:18:16;;;;;;;0.00;0.00;;;;;;;;;;5035766;28;20032;-70
2021/05/02 13:20:44;;;;;;;0.00;0.00;;;;;;;;;;5052914;28;20067;-70
2021/05/02 13:23:09;;;;;;;0.00;0.00;;;;;;;;;;5043079;28;20032;-70
2021/05/02 13:25:39;;;;;;;0.00;0.00;;;;;;;;;;5043014;28;20041;-70
2021/05/02 13:28:05;;;;;;;0.00;0.00;;;;;;;;;;5019754;28;20021;-70
2021/05/02 13:30:33;;;;;;;0.00;0.00;;;;;;;;;;5033551;28;20687;-70
2021/05/02 13:33:16;;;;;;;0.00;0.00;;;;;;;;;;5035632;28;20017;-70
2021/05/02 13:35:42;;;;;;;0.00;0.00;;;;;;;;;;5055405;28;20025;-70
2021/05/02 13:38:08;;;;;;;0.00;0.00;;;;;;;;;;5033102;28;20024;-70
2021/05/02 13:40:33;;;;;;;0.00;0.00;;;;;;;;;;5035374;28;20477;-70
2021/05/02 13:42:59;;;;;;;0.00;0.00;;;;;;;;;;5039517;28;20446;-70
2021/05/02 13:45:24;;;;;;;0.00;0.00;;;;;;;;;;5035442;28;20022;-70
2021/05/02 13:47:50;;;;;;;0.00;0.00;;;;;;;;;;5047965;28;20028;-70
2021/05/02 13:50:15;;;;;;;0.00;0.00;;;;;;;;;;5037146;28;20423;-69
2021/05/02 13:52:40;;;;;;;0.00;0.00;;;;;;;;;;5046697;28;20040;-70
2021/05/02 13:55:06;;;;;;;0.00;0.00;;;;;;;;;;5044928;28;20385;-69
2021/05/02 13:57:31;;;;;;;0.00;0.00;;;;;;;;;;5019037;28;20040;-70
2021/05/02 13:59:57;;;;;;;0.00;0.00;;;;;;;;;;5019784;28;20389;-71
2021/05/02 14:02:23;;;;;;;0.00;0.00;;;;;;;;;;5042310;28;20072;-70
2021/05/02 14:04:48;;;;;;;0.00;0.00;;;;;;;;;;5055036;28;20184;-71
2021/05/02 14:07:15;;;;;;;0.00;0.00;;;;;;;;;;5048115;28;20389;-71
2021/05/02 14:09:40;;;;;;;0.00;0.00;;;;;;;;;;5053467;28;20021;-70
2021/05/02 14:12:05;;;;;;;0.00;0.00;;;;;;;;;;5051919;28;20022;-70
2021/05/02 14:14:31;;;;;;;0.00;0.00;;;;;;;;;;5021495;28;20477;-68
2021/05/02 14:16:56;;;;;;;0.00;0.00;;;;;;;;;;5025094;28;20032;-68
2021/05/02 14:19:21;;;;;;;0.00;0.00;;;;;;;;;;5038485;28;20025;-68
2021/05/02 14:21:46;;;;;;;0.00;0.00;;;;;;;;;;5030645;28;20267;-69
2021/05/02 14:24:11;;;;;;;0.00;0.00;;;;;;;;;;5041809;28;20607;-69
2021/05/02 14:26:37;;;;;;;0.00;0.00;;;;;;;;;;5050029;28;20284;-69
2021/05/02 14:29:02;;;;;;;0.00;0.00;;;;;;;;;;5023994;28;20107;-69
2021/05/02 14:31:27;;;;;;;0.00;0.00;;;;;;;;;;5051989;28;20104;-70
2021/05/02 14:33:53;;;;;;;0.00;0.00;;;;;;;;;;5030417;28;20022;-70
2021/05/02 14:36:18;;;;;;;0.00;0.00;;;;;;;;;;5048302;28;20271;-69
2021/05/02 14:38:43;;;;;;;0.00;0.00;;;;;;;;;;5046411;28;20102;-70
2021/05/02 14:41:08;;;;;;;0.00;0.00;;;;;;;;;;5031046;28;20272;-70
2021/05/02 14:43:34;;;;;;;0.00;0.00;;;;;;;;;;5025553;28;20026;-70